sensor_id;sensor_type;location;lat;lon;timestamp;temperature;humidity
3053;DHT22;1536;51.098;6.414;2023-02-15T00:01:34;6.80;99.90
3053;DHT22;1536;51.098;6.414;2023-02-15T00:04:01;6.80;99.90
3053;DHT22;1536;51.098;6.414;2023-02-15T00:06:28;6.80;99.90
3053;DHT22;1536;51.098;6.414;2023-02-15T00:08:55;6.80;99.90
3053;DHT22;1536;51.098;6.414;2023-02-15T00:11:22;6.80;99.90
3053;DHT22;1536;51.098;6.414;2023-02-15T00:14:05;6.70;99.90
3053;DHT22;1536;51.098;6.414;2023-02-15T00:16:31;6.70;99.90
3053;DHT22;1536;51.098;6.414;2023-02-15T00:18:58;6.70;99.90
3053;DHT22;1536;51.098;6.414;2023-02-15T00:21:27;6.70;99.90
3053;DHT22;1536;51.098;6.414;2023-02-15T00:23:54;6.70;99.90
3053;DHT22;1536;51.098;6.414;2023-02-15T00:26:21;6.70;99.90
3053;DHT22;1536;51.098;6.414;2023-02-15T00:28:48;6.60;99.90
3053;DHT22;1536;51.098;6.414;2023-02-15T00:31:16;6.60;99.90
3053;DHT22;1536;51.098;6.414;2023-02-15T00:33:42;6.60;99.90
3053;DHT22;1536;51.098;6.414;2023-02-15T00:36:10;6.50;99.90
3053;DHT22;1536;51.098;6.414;2023-02-15T00:38:37;6.50;99.90
3053;DHT22;1536;51.098;6.414;2023-02-15T00:41:06;6.50;99.90
3053;DHT22;1536;51.098;6.414;2023-02-15T00:43:34;6.50;99.90
3053;DHT22;1536;51.098;6.414;2023-02-15T00:46:01;6.50;99.90
3053;DHT22;1536;51.098;6.414;2023-02-15T00:48:30;6.40;99.90
3053;DHT22;1536;51.098;6.414;2023-02-15T00:50:58;6.40;99.90
3053;DHT22;1536;51.098;6.414;2023-02-15T00:53:26;6.40;99.90
3053;DHT22;1536;51.098;6.414;2023-02-15T00:55:53;6.40;99.90
3053;DHT22;1536;51.098;6.414;2023-02-15T00:58:20;6.30;99.90
3053;DHT22;1536;51.098;6.414;2023-02-15T01:00:47;6.30;99.90
3053;DHT22;1536;51.098;6.414;2023-02-15T01:03:15;6.30;99.90
3053;DHT22;1536;51.098;6.414;2023-02-15T01:05:44;6.30;99.90
3053;DHT22;1536;51.098;6.414;2023-02-15T01:08:10;6.30;99.90
3053;DHT22;1536;51.098;6.414;2023-02-15T01:10:37;6.20;99.90
3053;DHT22;1536;51.098;6.414;2023-02-15T01:13:04;6.20;99.90
3053;DHT22;1536;51.098;6.414;2023-02-15T01:15:33;6.20;99.90
3053;DHT22;1536;51.098;6.414;2023-02-15T01:18:00;6.20;99.90
3053;DHT22;1536;51.098;6.414;2023-02-15T01:20:28;6.10;99.90
3053;DHT22;1536;51.098;6.414;2023-02-15T01:22:56;6.10;99.90
3053;DHT22;1536;51.098;6.414;2023-02-15T01:25:24;6.10;99.90
3053;DHT22;1536;51.098;6.414;2023-02-15T01:27:50;6.10;99.90
3053;DHT22;1536;51.098;6.414;2023-02-15T01:30:17;6.10;99.90
3053;DHT22;1536;51.098;6.414;2023-02-15T01:32:44;6.10;99.90
3053;DHT22;1536;51.098;6.414;2023-02-15T01:35:11;6.10;99.90
3053;DHT22;1536;51.098;6.414;2023-02-15T01:37:38;6.10;99.90
3053;DHT22;1536;51.098;6.414;2023-02-15T01:40:08;6.10;99.90
3053;DHT22;1536;51.098;6.414;2023-02-15T01:42:37;6.10;99.90
3053;DHT22;1536;51.098;6.414;2023-02-15T01:45:17;6.10;99.90
3053;DHT22;1536;51.098;6.414;2023-02-15T01:47:48;6.00;99.90
3053;DHT22;1536;51.098;6.414;2023-02-15T01:50:18;6.00;99.90
3053;DHT22;1536;51.098;6.414;2023-02-15T01:52:50;6.00;99.90
3053;DHT22;1536;51.098;6.414;2023-02-15T01:55:20;6.00;99.90
3053;DHT22;1536;51.098;6.414;2023-02-15T01:57:47;6.00;99.90
3053;DHT22;1536;51.098;6.414;2023-02-15T02:00:15;6.00;99.90
3053;DHT22;1536;51.098;6.414;2023-02-15T02:02:43;6.00;99.90
3053;DHT22;1536;51.098;6.414;2023-02-15T02:05:11;6.00;99.90
3053;DHT22;1536;51.098;6.414;2023-02-15T02:07:40;6.00;99.90
3053;DHT22;1536;51.098;6.414;2023-02-15T02:10:10;5.90;99.90
3053;DHT22;1536;51.098;6.414;2023-02-15T02:12:41;6.00;99.90
3053;DHT22;1536;51.098;6.414;2023-02-15T02:15:09;5.90;99.90
3053;DHT22;1536;51.098;6.414;2023-02-15T02:17:42;6.00;99.90
3053;DHT22;1536;51.098;6.414;2023-02-15T02:20:28;6.00;99.90
3053;DHT22;1536;51.098;6.414;2023-02-15T02:23:25;5.90;99.90
3053;DHT22;1536;51.098;6.414;2023-02-15T02:26:33;5.90;99.90
3053;DHT22;1536;51.098;6.414;2023-02-15T02:29:43;5.90;99.90
3053;DHT22;1536;51.098;6.414;2023-02-15T02:35:25;5.80;99.90
3053;DHT22;1536;51.098;6.414;2023-02-15T02:38:00;5.80;99.90
3053;DHT22;1536;51.098;6.414;2023-02-15T02:40:38;5.80;99.90
3053;DHT22;1536;51.098;6.414;2023-02-15T02:43:14;5.80;99.90
3053;DHT22;1536;51.098;6.414;2023-02-15T02:45:45;5.80;99.90
3053;DHT22;1536;51.098;6.414;2023-02-15T02:48:16;5.70;99.90
3053;DHT22;1536;51.098;6.414;2023-02-15T02:50:46;5.70;99.90
3053;DHT22;1536;51.098;6.414;2023-02-15T02:53:13;5.70;99.90
3053;DHT22;1536;51.098;6.414;2023-02-15T02:55:42;5.70;99.90
3053;DHT22;1536;51.098;6.414;2023-02-15T02:58:13;5.70;99.90
3053;DHT22;1536;51.098;6.414;2023-02-15T03:00:44;5.70;99.90
3053;DHT22;1536;51.098;6.414;2023-02-15T03:03:14;5.70;99.90
3053;DHT22;1536;51.098;6.414;2023-02-15T03:05:46;5.70;99.90
3053;DHT22;1536;51.098;6.414;2023-02-15T03:08:14;5.70;99.90
3053;DHT22;1536;51.098;6.414;2023-02-15T03:10:48;5.70;99.90
3053;DHT22;1536;51.098;6.414;2023-02-15T03:13:16;5.70;99.90
3053;DHT22;1536;51.098;6.414;2023-02-15T03:15:44;5.70;99.90
3053;DHT22;1536;51.098;6.414;2023-02-15T03:18:34;5.60;99.90
3053;DHT22;1536;51.098;6.414;2023-02-15T03:21:05;5.70;99.90
3053;DHT22;1536;51.098;6.414;2023-02-15T03:23:33;5.70;99.90
3053;DHT22;1536;51.098;6.414;2023-02-15T03:26:05;5.60;99.90
3053;DHT22;1536;51.098;6.414;2023-02-15T03:28:36;5.70;99.90
3053;DHT22;1536;51.098;6.414;2023-02-15T03:31:05;5.60;99.90
3053;DHT22;1536;51.098;6.414;2023-02-15T03:33:36;5.60;99.90
3053;DHT22;1536;51.098;6.414;2023-02-15T03:36:09;5.60;99.90
3053;DHT22;1536;51.098;6.414;2023-02-15T03:38:43;5.60;99.90
3053;DHT22;1536;51.098;6.414;2023-02-15T03:41:13;5.60;99.90
3053;DHT22;1536;51.098;6.414;2023-02-15T03:43:47;5.60;99.90
3053;DHT22;1536;51.098;6.414;2023-02-15T03:46:20;5.60;99.90
3053;DHT22;1536;51.098;6.414;2023-02-15T03:48:52;5.50;99.90
3053;DHT22;1536;51.098;6.414;2023-02-15T03:51:25;5.50;99.90
3053;DHT22;1536;51.098;6.414;2023-02-15T03:54:02;5.50;99.90
3053;DHT22;1536;51.098;6.414;2023-02-15T03:56:29;5.50;99.90
3053;DHT22;1536;51.098;6.414;2023-02-15T03:58:56;5.50;99.90
3053;DHT22;1536;51.098;6.414;2023-02-15T04:01:47;5.40;99.90
3053;DHT22;1536;51.098;6.414;2023-02-15T04:04:26;5.40;99.90
3053;DHT22;1536;51.098;6.414;2023-02-15T04:06:55;5.40;99.90
3053;DHT22;1536;51.098;6.414;2023-02-15T04:09:22;5.40;99.90
3053;DHT22;1536;51.098;6.414;2023-02-15T04:12:06;5.40;99.90
3053;DHT22;1536;51.098;6.414;2023-02-15T04:14:33;5.40;99.90
3053;DHT22;1536;51.098;6.414;2023-02-15T04:17:17;5.40;99.90
3053;DHT22;1536;51.098;6.414;2023-02-15T04:19:44;5.40;99.90
3053;DHT22;1536;51.098;6.414;2023-02-15T04:22:29;5.40;99.90
3053;DHT22;1536;51.098;6.414;2023-02-15T04:25:14;5.40;99.90
3053;DHT22;1536;51.098;6.414;2023-02-15T04:27:43;5.40;99.90
3053;DHT22;1536;51.098;6.414;2023-02-15T04:30:12;5.40;99.90
3053;DHT22;1536;51.098;6.414;2023-02-15T04:32:40;5.40;99.90
3053;DHT22;1536;51.098;6.414;2023-02-15T04:35:07;5.40;99.90
3053;DHT22;1536;51.098;6.414;2023-02-15T04:37:36;5.40;99.90
3053;DHT22;1536;51.098;6.414;2023-02-15T04:40:03;5.40;99.90
3053;DHT22;1536;51.098;6.414;2023-02-15T04:42:30;5.30;99.90
3053;DHT22;1536;51.098;6.414;2023-02-15T04:44:57;5.30;99.90
3053;DHT22;1536;51.098;6.414;2023-02-15T04:47:24;5.30;99.90
3053;DHT22;1536;51.098;6.414;2023-02-15T04:49:50;5.30;99.90
3053;DHT22;1536;51.098;6.414;2023-02-15T04:52:17;5.30;99.90
3053;DHT22;1536;51.098;6.414;2023-02-15T04:54:45;5.30;99.90
3053;DHT22;1536;51.098;6.414;2023-02-15T04:57:12;5.30;99.90
3053;DHT22;1536;51.098;6.414;2023-02-15T04:59:39;5.30;99.90
3053;DHT22;1536;51.098;6.414;2023-02-15T05:02:06;5.30;99.90
3053;DHT22;1536;51.098;6.414;2023-02-15T05:04:34;5.30;99.90
3053;DHT22;1536;51.098;6.414;2023-02-15T05:07:00;5.30;99.90
3053;DHT22;1536;51.098;6.414;2023-02-15T05:09:27;5.30;99.90
3053;DHT22;1536;51.098;6.414;2023-02-15T05:11:55;5.30;99.90
3053;DHT22;1536;51.098;6.414;2023-02-15T05:14:22;5.30;99.90
3053;DHT22;1536;51.098;6.414;2023-02-15T05:16:48;5.30;99.90
3053;DHT22;1536;51.098;6.414;2023-02-15T05:19:15;5.30;99.90
3053;DHT22;1536;51.098;6.414;2023-02-15T05:21:42;5.20;99.90
3053;DHT22;1536;51.098;6.414;2023-02-15T05:24:09;5.20;99.90
3053;DHT22;1536;51.098;6.414;2023-02-15T05:26:49;5.30;99.90
3053;DHT22;1536;51.098;6.414;2023-02-15T05:29:35;5.20;99.90
3053;DHT22;1536;51.098;6.414;2023-02-15T05:32:02;5.20;99.90
3053;DHT22;1536;51.098;6.414;2023-02-15T05:34:29;5.20;99.90
3053;DHT22;1536;51.098;6.414;2023-02-15T05:36:56;5.20;99.90
3053;DHT22;1536;51.098;6.414;2023-02-15T05:39:23;5.20;99.90
3053;DHT22;1536;51.098;6.414;2023-02-15T05:41:49;5.20;99.90
3053;DHT22;1536;51.098;6.414;2023-02-15T05:44:16;5.20;99.90
3053;DHT22;1536;51.098;6.414;2023-02-15T05:46:44;5.20;99.90
3053;DHT22;1536;51.098;6.414;2023-02-15T05:49:11;5.20;99.90
3053;DHT22;1536;51.098;6.414;2023-02-15T05:51:38;5.20;99.90
3053;DHT22;1536;51.098;6.414;2023-02-15T05:54:04;5.20;99.90
3053;DHT22;1536;51.098;6.414;2023-02-15T05:56:31;5.20;99.90
3053;DHT22;1536;51.098;6.414;2023-02-15T05:58:58;5.30;99.90
3053;DHT22;1536;51.098;6.414;2023-02-15T06:01:24;5.30;99.90
3053;DHT22;1536;51.098;6.414;2023-02-15T06:03:52;5.30;99.90
3053;DHT22;1536;51.098;6.414;2023-02-15T06:06:21;5.30;99.90
3053;DHT22;1536;51.098;6.414;2023-02-15T06:08:48;5.30;99.90
3053;DHT22;1536;51.098;6.414;2023-02-15T06:11:14;5.30;99.90
3053;DHT22;1536;51.098;6.414;2023-02-15T06:13:41;5.30;99.90
3053;DHT22;1536;51.098;6.414;2023-02-15T06:16:08;5.20;99.90
3053;DHT22;1536;51.098;6.414;2023-02-15T06:18:34;5.20;99.90
3053;DHT22;1536;51.098;6.414;2023-02-15T06:21:03;5.20;99.90
3053;DHT22;1536;51.098;6.414;2023-02-15T06:23:29;5.10;99.90
3053;DHT22;1536;51.098;6.414;2023-02-15T06:25:56;5.10;99.90
3053;DHT22;1536;51.098;6.414;2023-02-15T06:28:23;5.10;99.90
3053;DHT22;1536;51.098;6.414;2023-02-15T06:30:50;5.10;99.90
3053;DHT22;1536;51.098;6.414;2023-02-15T06:33:17;5.10;99.90
3053;DHT22;1536;51.098;6.414;2023-02-15T06:35:44;5.10;99.90
3053;DHT22;1536;51.098;6.414;2023-02-15T06:38:12;5.10;99.90
3053;DHT22;1536;51.098;6.414;2023-02-15T06:40:39;5.10;99.90
3053;DHT22;1536;51.098;6.414;2023-02-15T06:43:06;5.10;99.90
3053;DHT22;1536;51.098;6.414;2023-02-15T06:45:33;5.00;99.90
3053;DHT22;1536;51.098;6.414;2023-02-15T06:47:59;5.00;99.90
3053;DHT22;1536;51.098;6.414;2023-02-15T06:50:26;5.00;99.90
3053;DHT22;1536;51.098;6.414;2023-02-15T06:52:55;5.00;99.90
3053;DHT22;1536;51.098;6.414;2023-02-15T06:55:24;5.00;99.90
3053;DHT22;1536;51.098;6.414;2023-02-15T06:57:50;5.00;99.90
3053;DHT22;1536;51.098;6.414;2023-02-15T07:00:17;5.00;99.90
3053;DHT22;1536;51.098;6.414;2023-02-15T07:02:44;5.00;99.90
3053;DHT22;1536;51.098;6.414;2023-02-15T07:05:11;5.00;99.90
3053;DHT22;1536;51.098;6.414;2023-02-15T07:07:38;5.00;99.90
3053;DHT22;1536;51.098;6.414;2023-02-15T07:10:05;5.00;99.90
3053;DHT22;1536;51.098;6.414;2023-02-15T07:12:34;5.00;99.90
3053;DHT22;1536;51.098;6.414;2023-02-15T07:15:11;5.00;99.90
3053;DHT22;1536;51.098;6.414;2023-02-15T07:17:38;5.10;99.90
3053;DHT22;1536;51.098;6.414;2023-02-15T07:20:07;5.10;99.90
3053;DHT22;1536;51.098;6.414;2023-02-15T07:22:34;5.10;99.90
3053;DHT22;1536;51.098;6.414;2023-02-15T07:25:02;5.20;99.90
3053;DHT22;1536;51.098;6.414;2023-02-15T07:27:30;5.20;99.90
3053;DHT22;1536;51.098;6.414;2023-02-15T07:29:59;5.10;99.90
3053;DHT22;1536;51.098;6.414;2023-02-15T07:32:30;5.10;99.90
3053;DHT22;1536;51.098;6.414;2023-02-15T07:34:57;5.10;99.90
3053;DHT22;1536;51.098;6.414;2023-02-15T07:37:24;5.10;99.90
3053;DHT22;1536;51.098;6.414;2023-02-15T07:39:51;5.10;99.90
3053;DHT22;1536;51.098;6.414;2023-02-15T07:42:17;5.10;99.90
3053;DHT22;1536;51.098;6.414;2023-02-15T07:44:45;5.20;99.90
3053;DHT22;1536;51.098;6.414;2023-02-15T07:47:16;5.20;99.90
3053;DHT22;1536;51.098;6.414;2023-02-15T07:49:42;5.20;99.90
3053;DHT22;1536;51.098;6.414;2023-02-15T07:52:09;5.20;99.90
3053;DHT22;1536;51.098;6.414;2023-02-15T07:54:36;5.20;99.90
3053;DHT22;1536;51.098;6.414;2023-02-15T07:57:04;5.20;99.90
3053;DHT22;1536;51.098;6.414;2023-02-15T07:59:31;5.20;99.90
3053;DHT22;1536;51.098;6.414;2023-02-15T08:01:58;5.20;99.90
3053;DHT22;1536;51.098;6.414;2023-02-15T08:04:26;5.30;99.90
3053;DHT22;1536;51.098;6.414;2023-02-15T08:06:53;5.30;99.90
3053;DHT22;1536;51.098;6.414;2023-02-15T08:09:21;5.30;99.90
3053;DHT22;1536;51.098;6.414;2023-02-15T08:11:48;5.30;99.90
3053;DHT22;1536;51.098;6.414;2023-02-15T08:14:16;5.40;99.90
3053;DHT22;1536;51.098;6.414;2023-02-15T08:16:44;5.40;99.90
3053;DHT22;1536;51.098;6.414;2023-02-15T08:19:13;5.40;99.90
3053;DHT22;1536;51.098;6.414;2023-02-15T08:21:45;5.40;99.90
3053;DHT22;1536;51.098;6.414;2023-02-15T08:24:14;5.50;99.90
3053;DHT22;1536;51.098;6.414;2023-02-15T08:26:42;5.50;99.90
3053;DHT22;1536;51.098;6.414;2023-02-15T08:29:10;5.50;99.90
3053;DHT22;1536;51.098;6.414;2023-02-15T08:31:41;5.50;99.90
3053;DHT22;1536;51.098;6.414;2023-02-15T08:34:09;5.60;99.90
3053;DHT22;1536;51.098;6.414;2023-02-15T08:36:37;5.60;99.90
3053;DHT22;1536;51.098;6.414;2023-02-15T08:39:06;5.70;99.90
3053;DHT22;1536;51.098;6.414;2023-02-15T08:41:35;5.80;99.90
3053;DHT22;1536;51.098;6.414;2023-02-15T08:44:16;5.80;99.90
3053;DHT22;1536;51.098;6.414;2023-02-15T08:46:44;5.90;99.90
3053;DHT22;1536;51.098;6.414;2023-02-15T08:49:15;6.00;99.90
3053;DHT22;1536;51.098;6.414;2023-02-15T08:51:42;6.00;99.90
3053;DHT22;1536;51.098;6.414;2023-02-15T08:54:12;6.10;99.90
3053;DHT22;1536;51.098;6.414;2023-02-15T08:56:41;6.10;99.90
3053;DHT22;1536;51.098;6.414;2023-02-15T08:59:12;6.10;99.90
3053;DHT22;1536;51.098;6.414;2023-02-15T09:01:39;6.20;99.90
3053;DHT22;1536;51.098;6.414;2023-02-15T09:04:07;6.20;99.90
3053;DHT22;1536;51.098;6.414;2023-02-15T09:06:35;6.20;99.90
3053;DHT22;1536;51.098;6.414;2023-02-15T09:09:02;6.30;99.90
3053;DHT22;1536;51.098;6.414;2023-02-15T09:11:34;6.40;99.90
3053;DHT22;1536;51.098;6.414;2023-02-15T09:14:02;6.40;99.90
3053;DHT22;1536;51.098;6.414;2023-02-15T09:16:31;6.50;99.90
3053;DHT22;1536;51.098;6.414;2023-02-15T09:18:59;6.50;99.90
3053;DHT22;1536;51.098;6.414;2023-02-15T09:21:27;6.50;99.90
3053;DHT22;1536;51.098;6.414;2023-02-15T09:23:56;6.60;99.90
3053;DHT22;1536;51.098;6.414;2023-02-15T09:26:26;6.60;99.90
3053;DHT22;1536;51.098;6.414;2023-02-15T09:28:56;6.60;99.90
3053;DHT22;1536;51.098;6.414;2023-02-15T09:31:24;6.70;99.90
3053;DHT22;1536;51.098;6.414;2023-02-15T09:33:52;6.70;99.90
3053;DHT22;1536;51.098;6.414;2023-02-15T09:36:20;6.70;99.90
3053;DHT22;1536;51.098;6.414;2023-02-15T09:38:48;6.70;99.90
3053;DHT22;1536;51.098;6.414;2023-02-15T09:41:36;6.80;99.90
3053;DHT22;1536;51.098;6.414;2023-02-15T09:44:17;6.80;99.90
3053;DHT22;1536;51.098;6.414;2023-02-15T09:47:00;6.80;99.90
3053;DHT22;1536;51.098;6.414;2023-02-15T09:49:39;6.90;99.90
3053;DHT22;1536;51.098;6.414;2023-02-15T09:52:28;6.90;99.90
3053;DHT22;1536;51.098;6.414;2023-02-15T09:55:11;7.00;99.90
3053;DHT22;1536;51.098;6.414;2023-02-15T09:57:46;7.00;99.90
3053;DHT22;1536;51.098;6.414;2023-02-15T10:00:23;7.10;99.90
3053;DHT22;1536;51.098;6.414;2023-02-15T10:03:18;7.20;99.90
3053;DHT22;1536;51.098;6.414;2023-02-15T10:05:57;7.20;99.90
3053;DHT22;1536;51.098;6.414;2023-02-15T10:08:48;7.30;99.90
3053;DHT22;1536;51.098;6.414;2023-02-15T10:11:21;7.40;99.90
3053;DHT22;1536;51.098;6.414;2023-02-15T10:14:24;7.40;99.90
3053;DHT22;1536;51.098;6.414;2023-02-15T10:17:03;7.50;99.90
3053;DHT22;1536;51.098;6.414;2023-02-15T10:19:43;7.50;99.90
3053;DHT22;1536;51.098;6.414;2023-02-15T10:22:22;7.60;99.90
3053;DHT22;1536;51.098;6.414;2023-02-15T10:25:13;7.70;99.90
3053;DHT22;1536;51.098;6.414;2023-02-15T10:27:45;7.70;99.90
3053;DHT22;1536;51.098;6.414;2023-02-15T10:30:13;7.70;99.90
3053;DHT22;1536;51.098;6.414;2023-02-15T10:32:48;7.70;99.90
3053;DHT22;1536;51.098;6.414;2023-02-15T10:35:23;7.80;99.90
3053;DHT22;1536;51.098;6.414;2023-02-15T10:38:19;7.80;99.90
3053;DHT22;1536;51.098;6.414;2023-02-15T10:40:55;7.90;99.90
3053;DHT22;1536;51.098;6.414;2023-02-15T10:43:41;8.00;99.90
3053;DHT22;1536;51.098;6.414;2023-02-15T10:46:21;8.10;99.90
3053;DHT22;1536;51.098;6.414;2023-02-15T10:49:03;8.20;99.90
3053;DHT22;1536;51.098;6.414;2023-02-15T10:51:50;8.20;99.90
3053;DHT22;1536;51.098;6.414;2023-02-15T10:54:26;8.40;99.90
3053;DHT22;1536;51.098;6.414;2023-02-15T10:57:02;8.70;99.90
3053;DHT22;1536;51.098;6.414;2023-02-15T10:59:38;8.70;99.90
3053;DHT22;1536;51.098;6.414;2023-02-15T11:02:18;8.70;99.90
3053;DHT22;1536;51.098;6.414;2023-02-15T11:04:53;8.80;99.90
3053;DHT22;1536;51.098;6.414;2023-02-15T11:07:24;8.80;99.90
3053;DHT22;1536;51.098;6.414;2023-02-15T11:09:56;8.80;99.90
3053;DHT22;1536;51.098;6.414;2023-02-15T11:12:29;8.80;99.90
3053;DHT22;1536;51.098;6.414;2023-02-15T11:15:00;8.90;99.90
3053;DHT22;1536;51.098;6.414;2023-02-15T11:17:33;8.90;99.90
3053;DHT22;1536;51.098;6.414;2023-02-15T11:20:08;9.00;99.90
3053;DHT22;1536;51.098;6.414;2023-02-15T11:22:41;9.00;99.90
3053;DHT22;1536;51.098;6.414;2023-02-15T11:25:17;9.00;99.90
3053;DHT22;1536;51.098;6.414;2023-02-15T11:27:46;9.10;99.90
3053;DHT22;1536;51.098;6.414;2023-02-15T11:30:15;9.20;99.90
3053;DHT22;1536;51.098;6.414;2023-02-15T11:32:45;9.20;99.90
3053;DHT22;1536;51.098;6.414;2023-02-15T11:35:24;9.30;99.90
3053;DHT22;1536;51.098;6.414;2023-02-15T11:37:56;9.30;99.90
3053;DHT22;1536;51.098;6.414;2023-02-15T11:40:28;9.30;99.90
3053;DHT22;1536;51.098;6.414;2023-02-15T11:43:00;9.40;99.90
3053;DHT22;1536;51.098;6.414;2023-02-15T11:45:41;9.50;99.90
3053;DHT22;1536;51.098;6.414;2023-02-15T11:48:11;9.50;99.90
3053;DHT22;1536;51.098;6.414;2023-02-15T11:50:41;9.50;99.90
3053;DHT22;1536;51.098;6.414;2023-02-15T11:53:11;9.60;99.90
3053;DHT22;1536;51.098;6.414;2023-02-15T11:55:38;9.70;99.90
3053;DHT22;1536;51.098;6.414;2023-02-15T11:58:13;9.70;99.90
3053;DHT22;1536;51.098;6.414;2023-02-15T12:00:45;9.80;99.90
3053;DHT22;1536;51.098;6.414;2023-02-15T12:03:18;9.80;99.90
3053;DHT22;1536;51.098;6.414;2023-02-15T12:05:55;9.90;99.90
3053;DHT22;1536;51.098;6.414;2023-02-15T12:08:22;10.00;99.90
3053;DHT22;1536;51.098;6.414;2023-02-15T12:10:57;10.00;99.90
3053;DHT22;1536;51.098;6.414;2023-02-15T12:13:24;10.10;99.90
3053;DHT22;1536;51.098;6.414;2023-02-15T12:15:53;10.10;99.90
3053;DHT22;1536;51.098;6.414;2023-02-15T12:18:31;10.10;99.90
3053;DHT22;1536;51.098;6.414;2023-02-15T12:21:05;10.20;99.90
3053;DHT22;1536;51.098;6.414;2023-02-15T12:23:33;10.30;99.90
3053;DHT22;1536;51.098;6.414;2023-02-15T12:26:01;10.30;99.90
3053;DHT22;1536;51.098;6.414;2023-02-15T12:28:32;10.30;99.90
3053;DHT22;1536;51.098;6.414;2023-02-15T12:31:02;10.40;99.90
3053;DHT22;1536;51.098;6.414;2023-02-15T12:33:31;10.40;99.90
3053;DHT22;1536;51.098;6.414;2023-02-15T12:36:04;10.40;99.90
3053;DHT22;1536;51.098;6.414;2023-02-15T12:38:36;10.50;99.90
3053;DHT22;1536;51.098;6.414;2023-02-15T12:41:05;10.50;99.90
3053;DHT22;1536;51.098;6.414;2023-02-15T12:43:38;10.60;99.90
3053;DHT22;1536;51.098;6.414;2023-02-15T12:46:21;10.60;99.90
3053;DHT22;1536;51.098;6.414;2023-02-15T12:49:05;10.70;99.90
3053;DHT22;1536;51.098;6.414;2023-02-15T12:51:44;10.70;99.90
3053;DHT22;1536;51.098;6.414;2023-02-15T12:54:33;10.80;99.90
3053;DHT22;1536;51.098;6.414;2023-02-15T12:57:23;10.80;99.90
3053;DHT22;1536;51.098;6.414;2023-02-15T12:59:56;10.90;99.90
3053;DHT22;1536;51.098;6.414;2023-02-15T13:02:27;10.90;99.90
3053;DHT22;1536;51.098;6.414;2023-02-15T13:04:56;11.00;99.90
3053;DHT22;1536;51.098;6.414;2023-02-15T13:07:30;11.00;99.90
3053;DHT22;1536;51.098;6.414;2023-02-15T13:09:57;11.10;99.90
3053;DHT22;1536;51.098;6.414;2023-02-15T13:12:26;11.10;99.90
3053;DHT22;1536;51.098;6.414;2023-02-15T13:14:59;11.20;99.90
3053;DHT22;1536;51.098;6.414;2023-02-15T13:17:30;11.20;99.90
3053;DHT22;1536;51.098;6.414;2023-02-15T13:20:13;11.20;99.90
3053;DHT22;1536;51.098;6.414;2023-02-15T13:23:02;11.30;99.90
3053;DHT22;1536;51.098;6.414;2023-02-15T13:25:35;11.30;99.90
3053;DHT22;1536;51.098;6.414;2023-02-15T13:28:06;11.40;99.90
3053;DHT22;1536;51.098;6.414;2023-02-15T13:30:40;11.40;99.90
3053;DHT22;1536;51.098;6.414;2023-02-15T13:33:14;11.40;99.90
3053;DHT22;1536;51.098;6.414;2023-02-15T13:35:45;11.50;99.90
3053;DHT22;1536;51.098;6.414;2023-02-15T13:38:37;11.50;99.90
3053;DHT22;1536;51.098;6.414;2023-02-15T13:41:12;11.60;99.90
3053;DHT22;1536;51.098;6.414;2023-02-15T13:43:52;11.60;99.90
3053;DHT22;1536;51.098;6.414;2023-02-15T13:46:33;11.70;99.90
3053;DHT22;1536;51.098;6.414;2023-02-15T13:49:21;11.70;99.90
3053;DHT22;1536;51.098;6.414;2023-02-15T13:52:03;11.80;99.90
3053;DHT22;1536;51.098;6.414;2023-02-15T13:54:59;11.80;99.90
3053;DHT22;1536;51.098;6.414;2023-02-15T13:57:54;11.90;99.90
3053;DHT22;1536;51.098;6.414;2023-02-15T14:00:29;11.90;99.90
3053;DHT22;1536;51.098;6.414;2023-02-15T14:03:19;11.90;99.90
3053;DHT22;1536;51.098;6.414;2023-02-15T14:06:34;11.90;99.90
3053;DHT22;1536;51.098;6.414;2023-02-15T14:09:11;12.00;99.90
3053;DHT22;1536;51.098;6.414;2023-02-15T14:11:54;12.00;99.90
3053;DHT22;1536;51.098;6.414;2023-02-15T14:14:35;12.00;99.90
3053;DHT22;1536;51.098;6.414;2023-02-15T14:17:14;12.00;99.90
3053;DHT22;1536;51.098;6.414;2023-02-15T14:19:47;12.00;99.90
3053;DHT22;1536;51.098;6.414;2023-02-15T14:22:24;12.00;99.90
3053;DHT22;1536;51.098;6.414;2023-02-15T14:25:03;12.10;99.90
3053;DHT22;1536;51.098;6.414;2023-02-15T14:27:43;12.10;99.90
3053;DHT22;1536;51.098;6.414;2023-02-15T14:30:17;12.10;99.90
3053;DHT22;1536;51.098;6.414;2023-02-15T14:32:47;12.20;99.90
3053;DHT22;1536;51.098;6.414;2023-02-15T14:35:17;12.20;99.90
3053;DHT22;1536;51.098;6.414;2023-02-15T14:37:49;12.20;99.90
3053;DHT22;1536;51.098;6.414;2023-02-15T14:40:27;12.20;99.90
3053;DHT22;1536;51.098;6.414;2023-02-15T14:43:24;12.30;99.90
3053;DHT22;1536;51.098;6.414;2023-02-15T14:45:55;12.30;99.90
3053;DHT22;1536;51.098;6.414;2023-02-15T14:48:26;12.30;99.90
3053;DHT22;1536;51.098;6.414;2023-02-15T14:50:56;12.30;99.90
3053;DHT22;1536;51.098;6.414;2023-02-15T14:53:33;12.30;99.90
3053;DHT22;1536;51.098;6.414;2023-02-15T14:56:23;12.30;99.90
3053;DHT22;1536;51.098;6.414;2023-02-15T14:58:58;12.40;99.90
3053;DHT22;1536;51.098;6.414;2023-02-15T15:01:26;12.40;99.90
3053;DHT22;1536;51.098;6.414;2023-02-15T15:03:57;12.40;99.90
3053;DHT22;1536;51.098;6.414;2023-02-15T15:06:27;12.40;99.90
3053;DHT22;1536;51.098;6.414;2023-02-15T15:08:58;12.40;99.90
3053;DHT22;1536;51.098;6.414;2023-02-15T15:11:42;12.40;99.90
3053;DHT22;1536;51.098;6.414;2023-02-15T15:14:37;12.40;99.90
3053;DHT22;1536;51.098;6.414;2023-02-15T15:17:08;12.40;99.90
3053;DHT22;1536;51.098;6.414;2023-02-15T15:20:04;12.40;99.90
3053;DHT22;1536;51.098;6.414;2023-02-15T15:22:35;12.40;99.90
3053;DHT22;1536;51.098;6.414;2023-02-15T15:25:03;12.30;99.90
3053;DHT22;1536;51.098;6.414;2023-02-15T15:27:39;12.30;99.90
3053;DHT22;1536;51.098;6.414;2023-02-15T15:34:11;12.30;99.90
3053;DHT22;1536;51.098;6.414;2023-02-15T15:49:07;12.20;99.90
3053;DHT22;1536;51.098;6.414;2023-02-15T15:51:39;12.20;99.90
3053;DHT22;1536;51.098;6.414;2023-02-15T15:54:14;12.20;99.90
3053;DHT22;1536;51.098;6.414;2023-02-15T15:56:44;12.10;99.90
3053;DHT22;1536;51.098;6.414;2023-02-15T15:59:17;12.10;99.90
3053;DHT22;1536;51.098;6.414;2023-02-15T16:01:46;12.10;99.90
3053;DHT22;1536;51.098;6.414;2023-02-15T16:04:14;12.10;99.90
3053;DHT22;1536;51.098;6.414;2023-02-15T16:06:49;12.00;99.90
3053;DHT22;1536;51.098;6.414;2023-02-15T16:09:19;12.00;99.90
3053;DHT22;1536;51.098;6.414;2023-02-15T16:11:47;11.90;99.90
3053;DHT22;1536;51.098;6.414;2023-02-15T16:14:16;11.90;99.90
3053;DHT22;1536;51.098;6.414;2023-02-15T16:16:49;11.90;99.90
3053;DHT22;1536;51.098;6.414;2023-02-15T16:19:26;11.80;99.90
3053;DHT22;1536;51.098;6.414;2023-02-15T16:21:59;11.80;99.90
3053;DHT22;1536;51.098;6.414;2023-02-15T16:24:37;11.70;99.90
3053;DHT22;1536;51.098;6.414;2023-02-15T16:27:16;11.70;99.90
3053;DHT22;1536;51.098;6.414;2023-02-15T16:29:46;11.70;99.90
3053;DHT22;1536;51.098;6.414;2023-02-15T16:32:20;11.70;99.90
3053;DHT22;1536;51.098;6.414;2023-02-15T16:34:55;11.60;99.90
3053;DHT22;1536;51.098;6.414;2023-02-15T16:37:25;11.60;99.90
3053;DHT22;1536;51.098;6.414;2023-02-15T16:39:53;11.60;99.90
3053;DHT22;1536;51.098;6.414;2023-02-15T16:42:21;11.50;99.90
3053;DHT22;1536;51.098;6.414;2023-02-15T16:44:51;11.50;99.90
3053;DHT22;1536;51.098;6.414;2023-02-15T16:47:22;11.50;99.90
3053;DHT22;1536;51.098;6.414;2023-02-15T16:49:53;11.50;99.90
3053;DHT22;1536;51.098;6.414;2023-02-15T16:52:24;11.50;99.90
3053;DHT22;1536;51.098;6.414;2023-02-15T16:54:56;11.40;99.90
3053;DHT22;1536;51.098;6.414;2023-02-15T16:57:26;11.40;99.90
3053;DHT22;1536;51.098;6.414;2023-02-15T16:59:56;11.40;99.90
3053;DHT22;1536;51.098;6.414;2023-02-15T17:02:26;11.40;99.90
3053;DHT22;1536;51.098;6.414;2023-02-15T17:08:06;11.30;99.90
3053;DHT22;1536;51.098;6.414;2023-02-15T17:10:35;11.30;99.90